createdAt,value
2023-01-13T00:00:03.269Z,5.15
2023-01-13T00:02:38.634Z,5.19
2023-01-13T00:05:05.804Z,5.18
2023-01-13T00:07:32.404Z,5.18
2023-01-13T00:09:59.021Z,5.18
2023-01-13T00:12:25.623Z,5.18
2023-01-13T00:14:52.318Z,5.25
2023-01-13T00:17:18.944Z,5.20
2023-01-13T00:19:46.594Z,5.27
2023-01-13T00:22:13.331Z,5.36
2023-01-13T00:24:40.089Z,5.47
2023-01-13T00:27:06.761Z,5.49
2023-01-13T00:29:33.410Z,5.36
2023-01-13T00:32:00.415Z,5.39
2023-01-13T00:34:29.925Z,5.38
2023-01-13T00:36:58.746Z,5.42
2023-01-13T00:39:25.302Z,5.35
2023-01-13T00:42:10.475Z,5.38
2023-01-13T00:44:37.043Z,5.35
2023-01-13T00:47:03.690Z,5.35
2023-01-13T00:49:30.277Z,5.30
2023-01-13T00:51:56.796Z,5.27
2023-01-13T00:54:23.533Z,5.28
2023-01-13T00:56:50.061Z,5.22
2023-01-13T00:59:16.673Z,5.17
2023-01-13T01:01:43.348Z,5.20
2023-01-13T01:04:10.066Z,5.14
2023-01-13T01:06:36.691Z,5.13
2023-01-13T01:09:04.247Z,5.12
2023-01-13T01:11:32.452Z,5.09
2023-01-13T01:14:01.635Z,5.05
2023-01-13T01:16:29.801Z,4.99
2023-01-13T01:18:56.822Z,4.94
2023-01-13T01:21:25.553Z,4.91
2023-01-13T01:23:53.975Z,4.85
2023-01-13T01:26:23.472Z,4.84
2023-01-13T01:28:50.472Z,4.77
2023-01-13T01:34:39.628Z,4.74
2023-01-13T01:37:15.256Z,4.71
2023-01-13T04:30:51.139Z,3.87
2023-01-13T04:33:19.167Z,3.86
2023-01-13T04:35:46.858Z,3.89
2023-01-13T04:38:15.328Z,3.93
2023-01-13T04:40:42.437Z,3.93
2023-01-13T04:43:09.117Z,3.92
2023-01-13T04:45:36.095Z,3.98
2023-01-13T04:48:02.731Z,3.96
2023-01-13T04:50:29.439Z,4.00
2023-01-13T04:52:56.407Z,4.01
2023-01-13T04:55:24.811Z,4.01
2023-01-13T04:57:51.882Z,3.95
2023-01-13T05:00:20.892Z,3.99
2023-01-13T05:02:50.031Z,3.99
2023-01-13T05:05:17.000Z,4.02
2023-01-13T05:07:43.679Z,4.02
2023-01-13T05:10:10.927Z,4.05
2023-01-13T05:12:56.108Z,4.03
2023-01-13T05:15:41.671Z,4.02
2023-01-13T05:18:08.692Z,4.04
2023-01-13T05:20:35.416Z,4.04
2023-01-13T05:23:20.593Z,4.01
2023-01-13T05:25:48.421Z,3.99
2023-01-13T07:06:17.570Z,3.78
2023-01-13T07:08:44.278Z,3.85
2023-01-13T07:11:10.919Z,3.82
2023-01-13T07:13:56.576Z,3.95
2023-01-13T07:16:24.356Z,4.02
2023-01-13T07:18:51.140Z,4.12
2023-01-13T07:21:19.983Z,4.29
2023-01-13T07:23:47.439Z,4.34
2023-01-13T07:26:14.817Z,4.50
2023-01-13T07:28:41.695Z,4.61
2023-01-13T07:31:16.857Z,4.68
2023-01-13T07:33:43.759Z,4.77
2023-01-13T07:36:10.587Z,4.88
2023-01-13T07:38:39.702Z,4.92
2023-01-13T07:41:32.818Z,4.99
2023-01-13T07:44:00.465Z,5.09
2023-01-13T07:46:27.177Z,5.11
2023-01-13T07:48:53.780Z,5.24
2023-01-13T07:51:20.377Z,5.24
2023-01-13T07:53:46.960Z,5.29
2023-01-13T07:56:13.665Z,5.32
2023-01-13T07:58:40.329Z,5.42
2023-01-13T08:01:12.339Z,5.52
2023-01-13T08:03:42.492Z,5.62
2023-01-13T08:06:10.336Z,5.67
2023-01-13T08:08:37.416Z,5.69
2023-01-13T08:11:05.970Z,5.82
2023-01-13T08:13:32.574Z,5.81
2023-01-13T08:16:04.582Z,5.87
2023-01-13T08:18:32.082Z,5.89
2023-01-13T08:21:02.776Z,5.85
2023-01-13T08:23:29.365Z,5.86
2023-01-13T08:26:00.267Z,5.88
2023-01-13T08:28:26.985Z,5.89
2023-01-13T08:30:54.268Z,5.92
2023-01-13T08:33:21.224Z,5.96
2023-01-13T08:35:49.088Z,6.02
2023-01-13T08:38:15.746Z,6.05
2023-01-13T08:40:42.305Z,6.08
2023-01-13T08:43:08.874Z,6.10
2023-01-13T08:45:36.162Z,6.24
2023-01-13T08:48:03.394Z,6.28
2023-01-13T08:50:30.075Z,6.30
2023-01-13T08:52:56.784Z,6.31
2023-01-13T08:55:23.398Z,6.38
2023-01-13T08:57:49.988Z,6.43
2023-01-13T09:00:17.257Z,6.53
2023-01-13T09:02:45.105Z,6.67
2023-01-13T09:05:11.774Z,6.73
2023-01-13T09:07:38.942Z,6.80
2023-01-13T09:10:07.064Z,6.88
2023-01-13T09:12:52.023Z,6.87
2023-01-13T09:15:18.827Z,6.95
2023-01-13T09:17:45.873Z,7.05
2023-01-13T09:20:24.769Z,7.02
2023-01-13T09:22:51.432Z,7.08
2023-01-13T09:25:18.265Z,7.10
2023-01-13T09:27:44.859Z,7.15
2023-01-13T09:30:11.774Z,7.20
2023-01-13T09:32:38.629Z,7.16
2023-01-13T09:35:07.679Z,7.20
2023-01-13T09:37:39.476Z,7.21
2023-01-13T09:40:13.257Z,7.35
2023-01-13T09:43:02.811Z,7.46
2023-01-13T09:45:42.659Z,7.58
2023-01-13T09:48:18.351Z,7.65
2023-01-13T09:50:49.889Z,7.73
2023-01-13T09:53:43.851Z,7.96
2023-01-13T09:56:11.416Z,8.06
2023-01-13T09:58:38.015Z,8.15
2023-01-13T10:01:26.488Z,8.22
2023-01-13T10:03:53.628Z,8.22
2023-01-13T10:06:22.384Z,8.36
2023-01-13T10:08:49.713Z,8.48
2023-01-13T10:11:38.235Z,8.53
2023-01-13T10:14:19.191Z,8.67
2023-01-13T10:17:06.485Z,8.71
2023-01-13T10:19:57.974Z,8.78
2023-01-13T10:22:43.550Z,9.00
2023-01-13T10:25:20.538Z,9.15
2023-01-13T10:27:50.226Z,9.32
2023-01-13T10:30:31.463Z,9.51
2023-01-13T10:33:01.263Z,9.66
2023-01-13T10:35:52.689Z,9.76
2023-01-13T10:38:46.372Z,9.84
2023-01-13T10:41:15.712Z,9.94
2023-01-13T10:43:44.501Z,10.01
2023-01-13T10:46:15.972Z,10.07
2023-01-13T10:48:45.068Z,10.04
2023-01-13T10:51:20.850Z,10.03
2023-01-13T10:53:56.679Z,10.09
2023-01-13T10:56:26.034Z,10.11
2023-01-13T10:58:52.707Z,10.16
2023-01-13T11:01:26.992Z,10.31
2023-01-13T11:03:54.913Z,10.36
2023-01-13T11:06:27.022Z,10.34
2023-01-13T11:08:55.355Z,10.32
2023-01-13T11:11:29.436Z,10.28
2023-01-13T11:14:17.207Z,10.27
2023-01-13T11:16:53.045Z,10.29
2023-01-13T11:19:22.770Z,10.25
2023-01-13T11:22:01.293Z,10.27
2023-01-13T11:24:51.314Z,10.25
2023-01-13T11:27:24.368Z,10.29
2023-01-13T11:30:12.845Z,10.32
2023-01-13T11:33:15.082Z,10.37
2023-01-13T11:35:45.561Z,10.44
2023-01-13T11:38:27.397Z,10.55
2023-01-13T11:40:58.252Z,10.61
2023-01-13T11:43:42.960Z,10.64
2023-01-13T11:46:10.206Z,10.53
2023-01-13T11:48:41.361Z,10.57
2023-01-13T11:51:13.978Z,10.54
2023-01-13T11:54:01.706Z,10.53
2023-01-13T11:57:04.172Z,10.57
2023-01-13T11:59:33.475Z,10.60
2023-01-13T12:02:05.450Z,10.64
2023-01-13T12:04:41.343Z,10.70
2023-01-13T12:07:25.066Z,10.79
2023-01-13T12:10:13.900Z,10.84
2023-01-13T12:13:22.178Z,10.78
2023-01-13T12:15:48.719Z,10.79
2023-01-13T12:18:39.872Z,10.65
2023-01-13T12:21:21.117Z,10.64
2023-01-13T12:24:10.720Z,10.58
2023-01-13T12:26:40.468Z,10.50
2023-01-13T12:29:12.951Z,10.33
2023-01-13T12:31:40.628Z,10.32
2023-01-13T12:34:13.472Z,10.23
2023-01-13T12:36:58.527Z,10.19
2023-01-13T12:40:01.141Z,10.14
2023-01-13T12:43:08.796Z,10.14
2023-01-13T12:45:35.595Z,10.23
2023-01-13T12:48:02.243Z,10.24
2023-01-13T12:50:29.173Z,10.20
2023-01-13T12:53:00.466Z,10.32
2023-01-13T12:55:36.465Z,10.29
2023-01-13T12:58:15.383Z,10.23
2023-01-13T13:00:41.921Z,10.12
2023-01-13T13:03:11.603Z,10.09
2023-01-13T13:05:40.997Z,10.11
2023-01-13T13:08:36.539Z,10.07
2023-01-13T13:11:38.526Z,10.03
2023-01-13T13:14:07.769Z,10.04
2023-01-13T13:16:49.934Z,10.03
2023-01-13T13:19:22.411Z,10.00
2023-01-13T13:22:18.039Z,10.02
2023-01-13T13:24:57.476Z,9.83
2023-01-13T13:27:41.416Z,9.77
2023-01-13T13:30:28.213Z,9.69
2023-01-13T13:33:13.656Z,9.68
2023-01-13T13:36:03.115Z,9.63
2023-01-13T13:38:57.666Z,9.56
2023-01-13T13:41:44.739Z,9.41
2023-01-13T13:44:39.944Z,9.30
2023-01-13T13:47:07.156Z,9.19
2023-01-13T13:49:40.735Z,9.10
2023-01-13T13:52:15.398Z,9.21
2023-01-13T13:54:47.447Z,9.05
2023-01-13T13:57:17.260Z,8.94
2023-01-13T13:59:43.853Z,8.86
2023-01-13T14:02:24.420Z,8.62
2023-01-13T14:04:51.219Z,8.55
2023-01-13T14:07:21.061Z,8.52
2023-01-13T14:09:54.352Z,8.53
2023-01-13T14:12:23.319Z,8.37
2023-01-13T14:14:50.917Z,8.22
2023-01-13T14:17:19.210Z,8.07
2023-01-13T14:19:51.462Z,8.03
2023-01-13T14:22:18.273Z,7.98
2023-01-13T14:24:47.271Z,7.95
2023-01-13T14:27:17.164Z,7.80
2023-01-13T14:29:44.335Z,7.69
2023-01-13T14:32:17.656Z,7.68
2023-01-13T14:34:44.505Z,7.66
2023-01-13T14:37:31.464Z,7.63
2023-01-13T14:39:58.178Z,7.62
2023-01-13T14:42:25.363Z,7.49
2023-01-13T14:44:52.048Z,7.41
2023-01-13T14:47:31.866Z,7.38
2023-01-13T14:50:27.779Z,7.37
2023-01-13T14:52:56.889Z,7.32
2023-01-13T14:55:36.424Z,7.19
2023-01-13T14:58:21.643Z,7.21
2023-01-13T15:00:49.581Z,7.12
2023-01-13T15:03:17.697Z,7.12
2023-01-13T15:05:53.555Z,7.05
2023-01-13T15:08:26.195Z,7.03
2023-01-13T15:11:00.055Z,6.92
2023-01-13T15:13:53.145Z,6.82
2023-01-13T15:16:27.601Z,6.78
2023-01-13T15:18:55.620Z,6.80
2023-01-13T15:21:23.062Z,6.63
2023-01-13T15:23:49.979Z,6.56
2023-01-13T15:26:24.323Z,6.53
2023-01-13T15:28:51.750Z,6.56
2023-01-13T15:31:18.577Z,6.47
2023-01-13T15:33:45.279Z,6.46
2023-01-13T15:36:20.869Z,6.40
2023-01-13T15:38:47.587Z,6.36
2023-01-13T15:41:14.217Z,6.44
2023-01-13T15:43:59.196Z,6.38
2023-01-13T15:46:37.930Z,6.25
2023-01-13T15:49:34.963Z,6.19
2023-01-13T15:52:05.982Z,6.10
2023-01-13T15:54:32.622Z,6.07
2023-01-13T15:56:59.327Z,5.97
2023-01-13T15:59:27.650Z,5.95
2023-01-13T16:01:54.214Z,5.91
2023-01-13T16:04:20.760Z,5.78
2023-01-13T16:06:47.628Z,5.68
2023-01-13T16:09:15.132Z,5.67
2023-01-13T16:11:41.728Z,5.67
2023-01-13T16:14:08.309Z,5.74
2023-01-13T16:16:35.758Z,5.66
2023-01-13T16:19:02.416Z,5.74
2023-01-13T16:21:29.054Z,5.81
2023-01-13T16:23:55.623Z,5.73
2023-01-13T16:26:26.416Z,5.77
2023-01-13T16:28:54.919Z,5.59
2023-01-13T16:31:26.683Z,5.73
2023-01-13T16:33:53.606Z,5.71
2023-01-13T16:36:21.595Z,5.73
2023-01-13T16:38:49.558Z,5.82
2023-01-13T16:41:16.247Z,5.70
2023-01-13T16:43:43.843Z,5.84
2023-01-13T16:46:29.712Z,5.78
2023-01-13T16:49:01.417Z,5.82
2023-01-13T16:51:28.194Z,5.74
2023-01-13T16:53:54.866Z,5.81
2023-01-13T16:56:23.425Z,5.82
2023-01-13T16:58:51.815Z,5.78
2023-01-13T17:01:24.208Z,5.78
2023-01-13T17:03:51.637Z,5.81
2023-01-13T17:06:21.697Z,5.86
2023-01-13T17:08:48.595Z,5.82
2023-01-13T17:11:15.376Z,5.74
2023-01-13T17:13:42.198Z,5.74
2023-01-13T17:16:16.473Z,5.70
2023-01-13T17:18:43.145Z,5.63
2023-01-13T17:21:09.702Z,5.64
2023-01-13T17:23:36.343Z,5.61
2023-01-13T17:26:02.900Z,5.59
2023-01-13T17:28:29.555Z,5.59
2023-01-13T17:30:56.108Z,5.57
2023-01-13T17:33:22.737Z,5.54
2023-01-13T17:35:49.283Z,5.56
2023-01-13T17:38:16.197Z,5.68
2023-01-13T17:40:42.724Z,5.67
2023-01-13T17:43:09.271Z,5.63
2023-01-13T17:45:40.685Z,5.57
2023-01-13T17:48:07.425Z,5.66
2023-01-13T17:50:34.904Z,5.64
2023-01-13T17:53:01.552Z,5.50
2023-01-13T17:55:28.139Z,5.42
2023-01-13T17:57:54.737Z,5.48
2023-01-13T18:00:21.632Z,5.42
2023-01-13T18:02:48.349Z,5.35
2023-01-13T18:05:15.083Z,5.40
2023-01-13T18:07:41.774Z,5.40
2023-01-13T18:10:09.011Z,5.45
2023-01-13T18:12:35.587Z,5.44
2023-01-13T18:15:02.144Z,5.37
2023-01-13T18:17:28.756Z,5.47
2023-01-13T18:20:13.963Z,5.46
2023-01-13T18:22:59.073Z,5.51
2023-01-13T18:25:44.003Z,5.60
2023-01-13T18:28:10.627Z,5.56
2023-01-13T18:30:37.255Z,5.51
2023-01-13T18:33:03.875Z,5.48
2023-01-13T18:35:30.443Z,5.43
2023-01-13T18:37:57.074Z,5.32
2023-01-13T18:40:23.621Z,5.31
2023-01-13T18:42:54.434Z,5.33
2023-01-13T18:45:29.572Z,5.38
2023-01-13T18:47:58.757Z,5.43
2023-01-13T18:50:26.030Z,5.41
2023-01-13T18:52:52.783Z,5.41
2023-01-13T18:55:19.873Z,5.46
2023-01-13T18:57:47.078Z,5.44
2023-01-13T19:00:17.310Z,5.45
2023-01-13T19:02:44.098Z,5.43
2023-01-13T19:05:10.775Z,5.42
2023-01-13T19:07:37.496Z,5.53
2023-01-13T19:10:05.180Z,5.49
2023-01-13T19:12:33.618Z,5.46
2023-01-13T19:15:01.324Z,5.42
2023-01-13T19:17:31.818Z,5.43
2023-01-13T19:19:59.361Z,5.41
2023-01-13T19:22:32.692Z,5.37
2023-01-13T19:25:00.351Z,5.42
2023-01-13T19:27:27.602Z,5.40
2023-01-13T19:29:57.477Z,5.35
2023-01-13T19:32:24.616Z,5.28
2023-01-13T19:34:51.587Z,5.47
2023-01-13T19:37:19.269Z,5.78
2023-01-13T19:39:45.821Z,6.34
2023-01-13T19:42:31.924Z,7.01
2023-01-13T19:45:17.274Z,7.22
2023-01-13T19:47:45.543Z,7.68
2023-01-13T19:50:13.605Z,7.90
2023-01-13T19:52:41.438Z,8.13
2023-01-13T19:55:08.140Z,8.17
2023-01-13T19:57:34.779Z,8.33
2023-01-13T20:00:01.465Z,8.18
2023-01-13T20:02:28.263Z,8.32
2023-01-13T20:04:56.200Z,8.34
2023-01-13T20:07:24.498Z,8.34
2023-01-13T20:09:52.112Z,8.27
2023-01-13T20:12:22.802Z,8.23
2023-01-13T20:14:49.960Z,8.42
2023-01-13T20:17:18.440Z,8.45
2023-01-13T20:19:45.035Z,8.49
2023-01-13T20:22:11.848Z,8.24
2023-01-13T20:24:38.658Z,8.45
2023-01-13T20:27:05.800Z,8.43
2023-01-13T20:29:32.512Z,8.37
2023-01-13T20:31:59.113Z,8.45
2023-01-13T20:34:26.153Z,8.56
2023-01-13T20:36:53.099Z,8.52
2023-01-13T20:39:22.408Z,8.56
2023-01-13T20:42:07.769Z,8.56
2023-01-13T20:44:34.424Z,8.34
2023-01-13T20:47:02.725Z,8.28
2023-01-13T20:49:30.301Z,8.36
2023-01-13T20:51:57.433Z,8.38
2023-01-13T20:54:24.423Z,8.41
2023-01-13T20:56:51.091Z,8.21
2023-01-13T20:59:17.860Z,8.17
2023-01-13T21:01:44.472Z,8.11
2023-01-13T21:04:11.190Z,8.11
2023-01-13T21:06:37.826Z,8.06
2023-01-13T21:09:04.551Z,7.96
2023-01-13T21:11:51.403Z,7.92
2023-01-13T21:14:39.506Z,7.92
2023-01-13T21:17:07.317Z,7.93
2023-01-13T21:19:34.012Z,7.94
2023-01-13T21:22:00.708Z,7.80
2023-01-13T21:24:27.316Z,7.78
2023-01-13T21:26:57.893Z,7.78
2023-01-13T21:29:24.586Z,7.78
2023-01-13T21:31:51.242Z,7.79
2023-01-13T21:34:18.461Z,7.73
2023-01-13T21:36:45.163Z,7.71
2023-01-13T21:39:14.087Z,7.74
2023-01-13T21:42:03.877Z,7.80
2023-01-13T21:44:49.335Z,7.61
2023-01-13T21:47:37.056Z,7.54
2023-01-13T21:50:07.642Z,7.53
2023-01-13T21:52:34.362Z,7.38
2023-01-13T21:55:19.545Z,7.46
2023-01-13T21:57:47.255Z,7.38
2023-01-13T22:00:14.541Z,7.28
2023-01-13T22:02:41.289Z,7.28
2023-01-13T22:05:08.991Z,7.26
2023-01-13T22:07:36.589Z,7.44
2023-01-13T22:10:05.680Z,7.41
2023-01-13T22:12:32.609Z,7.38
2023-01-13T22:14:59.332Z,7.22
2023-01-13T22:17:27.768Z,7.04
2023-01-13T22:19:57.151Z,7.15
2023-01-13T22:22:24.729Z,7.19
2023-01-13T22:24:52.787Z,7.02
2023-01-13T22:27:21.509Z,7.01
2023-01-13T22:29:48.837Z,6.97
2023-01-13T22:32:15.843Z,7.02
2023-01-13T22:34:42.894Z,7.06
2023-01-13T22:37:09.708Z,6.99
2023-01-13T22:39:36.514Z,6.91
2023-01-13T22:42:03.654Z,6.89
2023-01-13T22:44:30.303Z,6.82
2023-01-13T22:46:56.879Z,6.94
2023-01-13T22:49:23.535Z,7.14
2023-01-13T22:51:50.199Z,7.28
2023-01-13T22:54:17.821Z,7.19
2023-01-13T22:56:44.521Z,7.11
2023-01-13T22:59:13.242Z,7.25
2023-01-13T23:01:40.983Z,7.03
2023-01-13T23:04:08.042Z,6.94
2023-01-13T23:06:35.297Z,7.26
2023-01-13T23:09:01.983Z,7.11
2023-01-13T23:11:29.689Z,7.22
2023-01-13T23:14:01.128Z,7.28
2023-01-13T23:16:29.043Z,7.12
2023-01-13T23:18:55.622Z,7.12
2023-01-13T23:21:24.792Z,6.99
2023-01-13T23:23:51.799Z,7.01
2023-01-13T23:26:18.864Z,6.93
2023-01-13T23:28:45.505Z,6.98
2023-01-13T23:31:17.335Z,6.78
2023-01-13T23:33:44.751Z,6.74
2023-01-13T23:36:17.938Z,6.70
2023-01-13T23:38:45.124Z,6.63
2023-01-13T23:41:16.124Z,6.88
2023-01-13T23:43:42.883Z,6.94
2023-01-13T23:46:13.987Z,6.89
2023-01-13T23:48:40.634Z,6.94
2023-01-13T23:51:10.077Z,7.10
2023-01-13T23:53:40.327Z,7.20
2023-01-13T23:56:10.299Z,7.15
2023-01-13T23:58:36.961Z,7.23
